Time;durP1;ratioP1;P1;durP2;ratioP2;P2;SDS_P1;SDS_P2;PMS_P1;PMS_P2;Temp;Humidity;BMP_temperature;BMP_pressure;BME280_temperature;BME280_humidity;BME280_pressure;Samples;Min_cycle;Max_cycle;Signal;HPM_P1;HPM_P2
2022/11/15 00:00:25;;;;;;;60.33;30.23;;;;;;;;;;5074685;28;20203;-55
2022/11/15 00:03:16;;;;;;;52.40;29.20;;;;;;;;;;5074754;28;20203;-57
2022/11/15 00:06:03;;;;;;;56.55;28.48;;;;;;;;;;5074633;28;20200;-57
2022/11/15 00:08:48;;;;;;;124.00;60.08;;;;;;;;;;5074479;28;20620;-56
2022/11/15 00:11:34;;;;;;;85.25;35.33;;;;;;;;;;5074705;28;20188;-55
2022/11/15 00:14:19;;;;;;;87.57;38.70;;;;;;;;;;5074399;28;20360;-58
2022/11/15 00:17:05;;;;;;;78.82;38.05;;;;;;;;;;5074575;28;20239;-58
2022/11/15 00:19:51;;;;;;;50.38;27.23;;;;;;;;;;5074242;28;20515;-56
2022/11/15 00:22:37;;;;;;;56.42;29.08;;;;;;;;;;5074430;28;20207;-57
2022/11/15 00:25:22;;;;;;;48.17;25.50;;;;;;;;;;5074546;28;20203;-58
2022/11/15 00:28:08;;;;;;;54.28;25.95;;;;;;;;;;5074595;28;20218;-54
2022/11/15 00:31:00;;;;;;;91.20;55.13;;;;;;;;;;5074349;28;20320;-57
2022/11/15 00:33:46;;;;;;;85.93;39.95;;;;;;;;;;5074084;28;20227;-58
2022/11/15 00:36:34;;;;;;;116.05;43.10;;;;;;;;;;5074504;28;20196;-54
2022/11/15 00:39:20;;;;;;;65.03;33.43;;;;;;;;;;5074415;28;20215;-58
2022/11/15 00:42:05;;;;;;;45.92;25.35;;;;;;;;;;5074931;28;20274;-57
2022/11/15 00:44:51;;;;;;;56.03;26.50;;;;;;;;;;5074739;28;20512;-56
2022/11/15 00:47:37;;;;;;;45.88;27.17;;;;;;;;;;5074265;28;20203;-57
2022/11/15 00:50:22;;;;;;;43.13;24.87;;;;;;;;;;5074341;28;20572;-57
2022/11/15 00:53:08;;;;;;;50.80;30.07;;;;;;;;;;5074461;28;20223;-56
2022/11/15 00:55:54;;;;;;;46.80;25.75;;;;;;;;;;5078193;28;20192;-58
2022/11/15 00:58:39;;;;;;;93.87;52.50;;;;;;;;;;5077842;28;20274;-57
2022/11/15 01:01:25;;;;;;;97.80;35.47;;;;;;;;;;5077821;28;20195;-57
2022/11/15 01:04:11;;;;;;;87.22;36.53;;;;;;;;;;5077514;28;20203;-57
2022/11/15 01:06:56;;;;;;;46.30;24.73;;;;;;;;;;5077582;28;20203;-57
2022/11/15 01:09:42;;;;;;;53.55;26.13;;;;;;;;;;5077650;28;20258;-58
2022/11/15 01:12:28;;;;;;;51.38;27.50;;;;;;;;;;5077881;28;20207;-56
2022/11/15 01:15:13;;;;;;;47.83;26.00;;;;;;;;;;5076773;28;20550;-57
2022/11/15 01:17:59;;;;;;;49.08;26.55;;;;;;;;;;5077244;28;20200;-57
2022/11/15 01:20:44;;;;;;;160.10;79.28;;;;;;;;;;5077447;28;20207;-56
2022/11/15 01:23:30;;;;;;;59.50;37.38;;;;;;;;;;5077864;28;20211;-57
2022/11/15 01:26:16;;;;;;;71.15;34.72;;;;;;;;;;5077419;28;20222;-57
2022/11/15 01:29:01;;;;;;;51.92;27.40;;;;;;;;;;5077285;28;20253;-57
2022/11/15 01:31:47;;;;;;;56.75;29.10;;;;;;;;;;5077305;28;20207;-57
2022/11/15 01:34:32;;;;;;;56.33;29.80;;;;;;;;;;5077344;28;20195;-56
2022/11/15 01:37:17;;;;;;;57.53;31.05;;;;;;;;;;5077295;28;20557;-58
2022/11/15 01:40:03;;;;;;;60.20;31.27;;;;;;;;;;5077107;28;20211;-56
2022/11/15 01:42:49;;;;;;;64.90;35.88;;;;;;;;;;5076662;28;20195;-58
2022/11/15 01:45:34;;;;;;;64.80;34.53;;;;;;;;;;5076982;28;20200;-57
2022/11/15 01:48:20;;;;;;;57.15;30.65;;;;;;;;;;5075839;28;20617;-57
2022/11/15 01:51:11;;;;;;;51.55;28.02;;;;;;;;;;5076672;28;20215;-57
2022/11/15 01:54:05;;;;;;;64.22;32.00;;;;;;;;;;5075900;28;20220;-57
2022/11/15 01:57:10;;;;;;;88.97;56.42;;;;;;;;;;5077153;28;20211;-56
2022/11/15 01:59:55;;;;;;;64.93;34.38;;;;;;;;;;5076052;28;20199;-58
2022/11/15 02:02:41;;;;;;;64.68;32.95;;;;;;;;;;5075721;28;20218;-59
2022/11/15 02:05:27;;;;;;;55.45;28.50;;;;;;;;;;5075769;28;20286;-55
2022/11/15 02:08:19;;;;;;;67.43;33.33;;;;;;;;;;5076277;28;20655;-57
2022/11/15 02:11:09;;;;;;;66.85;31.70;;;;;;;;;;5076031;28;20211;-57
2022/11/15 02:13:56;;;;;;;65.78;32.60;;;;;;;;;;5076660;28;20235;-56
2022/11/15 02:17:00;;;;;;;63.25;31.42;;;;;;;;;;5076276;28;20230;-56
2022/11/15 02:20:18;;;;;;;63.15;30.73;;;;;;;;;;5076150;28;20199;-55
2022/11/15 02:23:21;;;;;;;60.50;31.42;;;;;;;;;;5067454;28;20207;-56
2022/11/15 02:26:10;;;;;;;145.38;52.30;;;;;;;;;;5076065;28;20257;-57
2022/11/15 02:29:11;;;;;;;90.72;37.45;;;;;;;;;;5075713;28;20242;-56
2022/11/15 02:32:06;;;;;;;95.43;39.92;;;;;;;;;;5074828;28;20199;-57
2022/11/15 02:35:01;;;;;;;84.00;38.65;;;;;;;;;;5075718;28;20215;-55
2022/11/15 02:37:50;;;;;;;73.50;34.78;;;;;;;;;;5075601;28;20282;-56
2022/11/15 02:40:49;;;;;;;72.82;33.50;;;;;;;;;;5074861;28;20203;-58
2022/11/15 02:43:58;;;;;;;89.43;35.80;;;;;;;;;;5074759;28;20207;-58
2022/11/15 02:49:58;;;;;;;168.60;72.00;;;;;;;;;;5074858;28;20199;-56
2022/11/15 02:52:48;;;;;;;116.05;42.38;;;;;;;;;;5075421;28;20219;-57
2022/11/15 02:55:41;;;;;;;156.25;48.90;;;;;;;;;;5073658;28;20199;-58
2022/11/15 02:58:44;;;;;;;94.43;36.95;;;;;;;;;;5059696;28;20211;-57
2022/11/15 03:01:45;;;;;;;77.77;33.20;;;;;;;;;;5073593;28;20548;-56
2022/11/15 03:04:51;;;;;;;71.07;30.90;;;;;;;;;;5073666;28;20203;-57
2022/11/15 03:07:52;;;;;;;52.42;27.58;;;;;;;;;;5073542;28;20211;-57
2022/11/15 03:11:06;;;;;;;60.00;27.95;;;;;;;;;;5073433;28;20207;-59
2022/11/15 03:14:02;;;;;;;86.93;41.67;;;;;;;;;;5059404;28;20242;-58
2022/11/15 03:16:54;;;;;;;103.97;37.13;;;;;;;;;;5072226;28;20242;-56
2022/11/15 03:19:46;;;;;;;148.77;40.22;;;;;;;;;;5073391;28;20639;-58
2022/11/15 03:22:36;;;;;;;81.68;32.00;;;;;;;;;;5059271;28;20200;-56
2022/11/15 03:25:24;;;;;;;63.97;30.63;;;;;;;;;;5059460;28;20203;-58
2022/11/15 03:28:13;;;;;;;72.95;32.10;;;;;;;;;;5074354;28;20214;-57
2022/11/15 03:31:01;;;;;;;264.87;131.13;;;;;;;;;;5074079;28;20188;-57
2022/11/15 03:33:46;;;;;;;275.40;175.90;;;;;;;;;;5074012;28;20245;-57
2022/11/15 03:36:33;;;;;;;102.10;44.15;;;;;;;;;;5074661;28;20551;-55
2022/11/15 03:39:19;;;;;;;118.20;41.17;;;;;;;;;;5074840;28;20195;-57
2022/11/15 03:42:36;;;;;;;105.18;39.35;;;;;;;;;;5074089;28;20210;-57
2022/11/15 03:45:40;;;;;;;66.00;29.10;;;;;;;;;;5074740;28;20203;-59
2022/11/15 03:48:29;;;;;;;78.63;33.50;;;;;;;;;;5073888;28;20644;-57
2022/11/15 03:51:15;;;;;;;60.50;28.90;;;;;;;;;;5073825;28;20199;-56
2022/11/15 03:54:03;;;;;;;66.25;31.17;;;;;;;;;;5074173;28;20223;-57
2022/11/15 03:56:48;;;;;;;77.45;32.78;;;;;;;;;;5073973;28;20650;-58
2022/11/15 03:59:34;;;;;;;187.33;80.93;;;;;;;;;;5074397;28;20693;-56
2022/11/15 04:02:19;;;;;;;204.55;59.70;;;;;;;;;;5074930;28;20253;-57
2022/11/15 04:05:05;;;;;;;107.20;38.42;;;;;;;;;;5075012;28;20199;-56
2022/11/15 04:07:51;;;;;;;74.65;31.35;;;;;;;;;;5074356;28;20632;-57
2022/11/15 04:10:37;;;;;;;76.72;32.05;;;;;;;;;;5074954;28;20253;-57
2022/11/15 04:13:22;;;;;;;65.53;30.83;;;;;;;;;;5074385;28;20668;-57
2022/11/15 04:16:07;;;;;;;74.55;32.40;;;;;;;;;;5074448;28;20244;-58
2022/11/15 04:25:00;;;;;;;104.78;45.60;;;;;;;;;;5074464;28;20200;-57
2022/11/15 04:27:46;;;;;;;109.28;38.83;;;;;;;;;;5070390;28;20208;-59
2022/11/15 04:30:32;;;;;;;62.42;29.58;;;;;;;;;;5065354;28;20700;-58
2022/11/15 04:33:17;;;;;;;60.15;28.02;;;;;;;;;;5065608;28;20599;-59
2022/11/15 04:39:08;;;;;;;73.43;29.05;;;;;;;;;;5075890;28;20211;-57
2022/11/15 04:41:53;;;;;;;70.07;31.10;;;;;;;;;;5078333;28;20211;-58
2022/11/15 04:44:39;;;;;;;77.05;31.08;;;;;;;;;;5077923;28;20202;-56
2022/11/15 04:47:24;;;;;;;104.47;40.75;;;;;;;;;;5076299;28;20203;-59
2022/11/15 04:50:13;;;;;;;91.30;37.67;;;;;;;;;;5077948;28;20210;-57
2022/11/15 04:52:58;;;;;;;100.45;32.78;;;;;;;;;;5077533;28;20219;-57
2022/11/15 04:55:45;;;;;;;80.22;31.88;;;;;;;;;;5077636;28;20206;-57
2022/11/15 04:58:31;;;;;;;91.50;36.20;;;;;;;;;;5072051;28;20219;-60
2022/11/15 05:01:17;;;;;;;73.32;31.83;;;;;;;;;;5073978;28;20227;-59
2022/11/15 05:04:21;;;;;;;71.70;30.45;;;;;;;;;;5056438;28;20223;-58
2022/11/15 05:07:06;;;;;;;148.53;68.20;;;;;;;;;;5075867;28;20235;-57
2022/11/15 05:09:51;;;;;;;101.10;59.10;;;;;;;;;;5067460;28;20227;-57
2022/11/15 05:12:37;;;;;;;70.03;32.10;;;;;;;;;;5063948;28;20675;-59
2022/11/15 05:15:22;;;;;;;68.70;28.92;;;;;;;;;;5076142;28;20227;-56
2022/11/15 05:18:08;;;;;;;66.90;30.20;;;;;;;;;;5076449;28;20227;-59
2022/11/15 05:20:53;;;;;;;63.00;27.75;;;;;;;;;;5076544;28;20655;-57
2022/11/15 05:23:40;;;;;;;73.97;31.85;;;;;;;;;;5076524;28;20227;-56
2022/11/15 05:26:26;;;;;;;62.10;27.87;;;;;;;;;;5072816;28;20227;-56
2022/11/15 05:29:12;;;;;;;65.63;28.95;;;;;;;;;;5073635;28;20308;-59
2022/11/15 05:31:57;;;;;;;59.67;27.73;;;;;;;;;;5076033;28;20223;-57
2022/11/15 05:34:43;;;;;;;68.72;30.38;;;;;;;;;;5075547;28;20242;-53
2022/11/15 05:37:29;;;;;;;152.10;88.90;;;;;;;;;;5055889;28;20703;-55
2022/11/15 05:40:15;;;;;;;88.67;40.57;;;;;;;;;;5054802;28;20224;-56
2022/11/15 05:43:02;;;;;;;82.90;35.17;;;;;;;;;;5055568;28;20224;-59
2022/11/15 05:45:48;;;;;;;79.47;32.20;;;;;;;;;;5055615;28;20290;-57
2022/11/15 05:48:34;;;;;;;79.93;31.40;;;;;;;;;;5054194;28;20220;-60
2022/11/15 05:51:22;;;;;;;71.53;29.60;;;;;;;;;;5059699;28;20235;-59
2022/11/15 05:54:07;;;;;;;81.00;36.55;;;;;;;;;;5064934;28;20231;-61
2022/11/15 05:56:55;;;;;;;61.15;29.20;;;;;;;;;;5060032;28;20280;-55
2022/11/15 05:59:43;;;;;;;66.38;29.63;;;;;;;;;;5073406;28;20336;-55
2022/11/15 06:02:29;;;;;;;72.50;30.05;;;;;;;;;;5073694;28;20223;-56
2022/11/15 06:05:15;;;;;;;88.18;39.00;;;;;;;;;;5073798;28;20308;-59
2022/11/15 06:08:00;;;;;;;89.13;43.33;;;;;;;;;;5074399;28;20223;-58
2022/11/15 06:10:46;;;;;;;65.40;29.90;;;;;;;;;;5074107;28;20219;-55
2022/11/15 06:13:33;;;;;;;64.72;28.67;;;;;;;;;;5074965;28;20223;-56
2022/11/15 06:16:18;;;;;;;75.35;30.77;;;;;;;;;;5075137;28;20235;-60
2022/11/15 06:19:06;;;;;;;64.83;30.20;;;;;;;;;;5075332;28;20223;-56
2022/11/15 06:21:51;;;;;;;69.80;29.73;;;;;;;;;;5075300;28;20301;-58
2022/11/15 06:24:37;;;;;;;73.20;31.90;;;;;;;;;;5075009;28;20219;-54
2022/11/15 06:27:23;;;;;;;82.40;35.65;;;;;;;;;;5075359;28;20223;-57
2022/11/15 06:30:09;;;;;;;87.20;37.47;;;;;;;;;;5075971;28;20215;-56
2022/11/15 06:33:03;;;;;;;80.80;35.43;;;;;;;;;;5075918;28;20191;-54
2022/11/15 06:35:48;;;;;;;120.65;50.85;;;;;;;;;;5075729;28;20211;-56
2022/11/15 06:38:34;;;;;;;208.77;72.57;;;;;;;;;;5075688;28;20199;-51
2022/11/15 06:41:21;;;;;;;93.70;43.80;;;;;;;;;;5075668;28;20211;-54
2022/11/15 06:44:06;;;;;;;122.22;47.75;;;;;;;;;;5075750;28;20268;-52
2022/11/15 06:46:51;;;;;;;93.63;40.17;;;;;;;;;;5075423;28;20204;-52
2022/11/15 06:49:36;;;;;;;98.32;38.58;;;;;;;;;;5075770;28;20278;-55
2022/11/15 06:52:22;;;;;;;92.10;38.57;;;;;;;;;;5075332;28;20207;-52
2022/11/15 06:55:08;;;;;;;93.60;39.08;;;;;;;;;;5075148;28;20247;-53
2022/11/15 06:57:54;;;;;;;77.47;33.60;;;;;;;;;;5075356;28;20203;-52
2022/11/15 07:00:40;;;;;;;72.90;31.52;;;;;;;;;;5075403;28;20215;-56
2022/11/15 07:03:26;;;;;;;59.73;28.70;;;;;;;;;;5075532;28;20234;-54
2022/11/15 07:06:12;;;;;;;77.03;34.20;;;;;;;;;;5074982;28;20200;-51
2022/11/15 07:08:58;;;;;;;75.07;31.00;;;;;;;;;;5075090;28;20210;-57
2022/11/15 07:11:43;;;;;;;70.80;29.67;;;;;;;;;;5075352;28;20211;-55
2022/11/15 07:14:29;;;;;;;60.17;27.43;;;;;;;;;;5075239;28;20231;-56
2022/11/15 07:17:15;;;;;;;70.22;29.13;;;;;;;;;;5074557;28;20231;-59
2022/11/15 07:20:02;;;;;;;67.27;28.67;;;;;;;;;;5074143;28;20192;-58
2022/11/15 07:22:48;;;;;;;60.92;27.63;;;;;;;;;;5075026;28;20253;-58
2022/11/15 07:25:34;;;;;;;58.73;26.50;;;;;;;;;;5074781;28;20206;-55
2022/11/15 07:28:20;;;;;;;53.08;25.35;;;;;;;;;;5074893;28;20222;-58
2022/11/15 07:31:07;;;;;;;129.70;59.28;;;;;;;;;;5075278;28;20237;-54
2022/11/15 07:33:52;;;;;;;69.03;33.63;;;;;;;;;;5075300;28;20214;-56
2022/11/15 07:36:38;;;;;;;74.85;31.95;;;;;;;;;;5075002;28;20195;-55
2022/11/15 07:39:24;;;;;;;54.78;25.50;;;;;;;;;;5075130;28;20203;-56
2022/11/15 07:45:14;;;;;;;49.50;23.50;;;;;;;;;;5074651;28;20620;-55
2022/11/15 07:48:00;;;;;;;56.80;23.33;;;;;;;;;;5074798;28;20282;-51
2022/11/15 07:50:46;;;;;;;56.13;24.77;;;;;;;;;;5074699;28;20203;-52
2022/11/15 07:53:31;;;;;;;56.67;24.20;;;;;;;;;;5074545;28;20192;-56
2022/11/15 07:56:17;;;;;;;56.85;24.50;;;;;;;;;;5075107;28;20199;-51
2022/11/15 07:59:03;;;;;;;110.23;48.03;;;;;;;;;;5074617;28;20264;-52
2022/11/15 08:01:49;;;;;;;59.75;26.50;;;;;;;;;;5074645;28;20591;-54
2022/11/15 08:04:35;;;;;;;74.05;28.20;;;;;;;;;;5079140;28;20271;-54
2022/11/15 08:07:20;;;;;;;62.35;25.90;;;;;;;;;;5077473;28;20207;-57
2022/11/15 08:10:07;;;;;;;64.30;26.13;;;;;;;;;;5078732;28;20198;-56
2022/11/15 08:13:00;;;;;;;56.70;25.43;;;;;;;;;;5078694;28;20272;-56
2022/11/15 08:15:46;;;;;;;55.60;23.73;;;;;;;;;;5078253;28;20239;-55
2022/11/15 08:18:32;;;;;;;57.13;24.47;;;;;;;;;;5078339;28;20640;-58
2022/11/15 08:21:19;;;;;;;61.33;26.73;;;;;;;;;;5078651;28;20210;-55
2022/11/15 08:24:05;;;;;;;60.78;33.28;;;;;;;;;;5078141;28;20219;-56
2022/11/15 08:26:51;;;;;;;52.47;24.17;;;;;;;;;;5078368;28;20203;-56
2022/11/15 08:29:37;;;;;;;54.13;22.53;;;;;;;;;;5078641;28;20198;-52
2022/11/15 08:32:22;;;;;;;46.40;20.33;;;;;;;;;;5078012;28;20191;-55
2022/11/15 08:35:08;;;;;;;40.10;19.33;;;;;;;;;;5077912;28;20310;-55
2022/11/15 08:37:54;;;;;;;46.97;19.55;;;;;;;;;;5078036;28;20708;-56
2022/11/15 08:40:40;;;;;;;40.05;18.92;;;;;;;;;;5078074;28;20195;-55
2022/11/15 08:43:26;;;;;;;44.80;19.35;;;;;;;;;;5078377;28;20199;-54
2022/11/15 08:46:12;;;;;;;46.83;20.33;;;;;;;;;;5078028;28;20223;-56
2022/11/15 08:48:58;;;;;;;85.70;38.60;;;;;;;;;;5078022;28;20191;-55
2022/11/15 08:51:44;;;;;;;46.80;20.17;;;;;;;;;;5077683;28;20191;-56
2022/11/15 08:54:30;;;;;;;47.22;20.23;;;;;;;;;;5078073;28;20211;-55
2022/11/15 08:57:15;;;;;;;41.22;18.27;;;;;;;;;;5077829;28;20195;-55
2022/11/15 09:00:00;;;;;;;49.53;21.73;;;;;;;;;;5078397;28;20232;-52
2022/11/15 09:02:46;;;;;;;49.47;21.58;;;;;;;;;;5078098;28;20199;-57
2022/11/15 09:05:33;;;;;;;81.93;32.78;;;;;;;;;;5077696;28;20184;-56
2022/11/15 09:08:18;;;;;;;62.05;25.48;;;;;;;;;;5077421;28;20624;-57
2022/11/15 09:11:24;;;;;;;40.15;19.00;;;;;;;;;;5077778;28;20327;-53
2022/11/15 09:14:13;;;;;;;38.43;16.97;;;;;;;;;;5076030;28;20226;-55
2022/11/15 09:16:59;;;;;;;52.08;25.17;;;;;;;;;;5077586;28;20262;-55
2022/11/15 09:19:44;;;;;;;54.80;24.83;;;;;;;;;;5077531;28;20203;-55
2022/11/15 09:22:29;;;;;;;43.65;19.27;;;;;;;;;;5077410;28;20335;-57
2022/11/15 09:25:15;;;;;;;40.80;17.53;;;;;;;;;;5077406;28;20289;-56
2022/11/15 09:28:00;;;;;;;36.65;17.70;;;;;;;;;;5077488;28;20199;-56
2022/11/15 09:30:46;;;;;;;36.47;16.63;;;;;;;;;;5077066;28;20632;-57
2022/11/15 09:33:31;;;;;;;38.00;16.88;;;;;;;;;;5076976;28;20204;-56
2022/11/15 09:36:17;;;;;;;36.43;17.13;;;;;;;;;;5076908;28;20217;-55
2022/11/15 09:39:03;;;;;;;38.13;17.53;;;;;;;;;;5077076;28;20203;-54
2022/11/15 09:42:09;;;;;;;39.05;17.63;;;;;;;;;;5076984;28;20199;-55
2022/11/15 09:45:13;;;;;;;47.05;22.30;;;;;;;;;;5076689;28;20539;-56
2022/11/15 09:48:40;;;;;;;46.58;20.33;;;;;;;;;;5076191;28;20509;-56
2022/11/15 09:51:30;;;;;;;46.72;18.33;;;;;;;;;;5076602;28;20199;-55
2022/11/15 09:54:00;;;;;;;49.65;19.50;;;;;;;;;;5076509;28;20198;-54
2022/11/15 09:56:48;;;;;;;39.85;18.33;;;;;;;;;;5076692;28;20208;-56
2022/11/15 09:59:50;;;;;;;38.13;18.57;;;;;;;;;;5076524;28;20199;-55
2022/11/15 10:02:23;;;;;;;62.92;22.58;;;;;;;;;;5076402;28;20702;-56
2022/11/15 10:04:51;;;;;;;43.90;18.85;;;;;;;;;;5076402;28;20643;-55
2022/11/15 10:07:27;;;;;;;47.53;19.17;;;;;;;;;;5076886;28;20203;-56
2022/11/15 10:09:59;;;;;;;240.75;125.38;;;;;;;;;;5076475;28;20210;-55
2022/11/15 10:12:27;;;;;;;57.20;28.80;;;;;;;;;;5075667;28;20180;-53
2022/11/15 10:15:15;;;;;;;41.95;20.20;;;;;;;;;;5076263;28;20247;-56
2022/11/15 10:18:07;;;;;;;42.28;19.55;;;;;;;;;;5075542;28;20230;-56
2022/11/15 10:20:58;;;;;;;38.97;17.98;;;;;;;;;;5075306;28;20199;-56
2022/11/15 10:23:26;;;;;;;33.35;17.15;;;;;;;;;;5075425;28;20199;-56
2022/11/15 10:25:56;;;;;;;33.50;17.05;;;;;;;;;;5075680;28;20238;-58
2022/11/15 10:28:31;;;;;;;39.95;18.77;;;;;;;;;;5076388;28;20215;-54
2022/11/15 10:31:00;;;;;;;34.17;16.88;;;;;;;;;;5075653;28;20569;-55
2022/11/15 10:33:35;;;;;;;33.92;17.90;;;;;;;;;;5075700;28;20200;-55
2022/11/15 10:36:13;;;;;;;36.00;18.75;;;;;;;;;;5075934;28;20223;-52
2022/11/15 10:38:49;;;;;;;43.42;21.35;;;;;;;;;;5075848;28;20640;-56
2022/11/15 10:41:19;;;;;;;36.35;18.40;;;;;;;;;;5075570;28;20219;-56
2022/11/15 10:44:01;;;;;;;44.30;20.40;;;;;;;;;;5075621;28;20210;-51
2022/11/15 10:46:28;;;;;;;40.53;19.73;;;;;;;;;;5075803;28;20207;-54
2022/11/15 10:49:18;;;;;;;37.38;19.52;;;;;;;;;;5075159;28;20203;-56
2022/11/15 10:51:49;;;;;;;35.67;19.00;;;;;;;;;;5075475;28;20282;-56
2022/11/15 10:54:24;;;;;;;43.95;20.40;;;;;;;;;;5074445;28;20203;-53
2022/11/15 10:56:53;;;;;;;36.70;20.50;;;;;;;;;;5074752;28;20203;-56
2022/11/15 10:59:26;;;;;;;34.97;20.70;;;;;;;;;;5074687;28;20351;-55
2022/11/15 11:01:54;;;;;;;44.97;22.38;;;;;;;;;;5075520;28;20187;-55
2022/11/15 11:04:21;;;;;;;101.88;59.55;;;;;;;;;;5073431;28;20203;-55
2022/11/15 11:06:51;;;;;;;67.03;34.85;;;;;;;;;;5073521;28;20210;-55
2022/11/15 11:09:35;;;;;;;55.55;26.00;;;;;;;;;;5073775;28;20225;-54
2022/11/15 11:12:05;;;;;;;40.97;21.33;;;;;;;;;;5073698;28;20549;-57
2022/11/15 11:14:35;;;;;;;42.50;22.88;;;;;;;;;;5073574;28;20235;-53
2022/11/15 11:17:08;;;;;;;37.63;21.23;;;;;;;;;;5073284;28;20230;-57
2022/11/15 11:19:41;;;;;;;39.13;21.27;;;;;;;;;;5073496;28;20222;-54
2022/11/15 11:22:20;;;;;;;44.67;22.92;;;;;;;;;;5073473;28;20199;-55
2022/11/15 11:24:50;;;;;;;44.63;23.65;;;;;;;;;;5073559;28;20268;-58
2022/11/15 11:27:25;;;;;;;43.05;23.85;;;;;;;;;;5073215;28;20222;-51
2022/11/15 11:30:08;;;;;;;44.58;24.35;;;;;;;;;;5073309;28;20202;-54
2022/11/15 11:32:49;;;;;;;74.20;37.43;;;;;;;;;;5073800;28;20302;-53
2022/11/15 11:35:30;;;;;;;58.85;27.42;;;;;;;;;;5063696;28;20223;-55
2022/11/15 11:38:29;;;;;;;48.55;24.55;;;;;;;;;;5073490;28;20252;-56
2022/11/15 11:41:19;;;;;;;43.38;23.25;;;;;;;;;;5074473;28;20205;-52
2022/11/15 11:43:58;;;;;;;51.53;25.65;;;;;;;;;;5073944;28;20640;-54
2022/11/15 11:46:44;;;;;;;47.83;27.20;;;;;;;;;;5075248;28;20581;-56
2022/11/15 11:49:52;;;;;;;53.67;27.52;;;;;;;;;;5073850;28;20210;-56
2022/11/15 11:52:28;;;;;;;53.67;28.20;;;;;;;;;;5074857;28;20211;-56
2022/11/15 11:54:58;;;;;;;216.27;100.00;;;;;;;;;;5073930;28;20293;-55
2022/11/15 11:57:28;;;;;;;224.93;125.55;;;;;;;;;;5075373;28;20206;-55
2022/11/15 12:00:22;;;;;;;78.18;45.92;;;;;;;;;;5074689;28;20214;-54
2022/11/15 12:03:01;;;;;;;67.10;33.63;;;;;;;;;;5071725;28;20203;-56
2022/11/15 12:05:50;;;;;;;59.90;29.85;;;;;;;;;;5074741;28;20203;-56
2022/11/15 12:08:25;;;;;;;45.70;26.45;;;;;;;;;;5073920;28;20207;-54
2022/11/15 12:11:13;;;;;;;58.38;31.92;;;;;;;;;;5073820;28;20199;-54
2022/11/15 12:13:42;;;;;;;53.80;30.33;;;;;;;;;;5074941;28;20196;-56
2022/11/15 12:16:28;;;;;;;49.92;28.90;;;;;;;;;;5073179;28;20254;-55
2022/11/15 12:18:59;;;;;;;54.92;30.23;;;;;;;;;;5074000;28;20199;-54
2022/11/15 12:22:04;;;;;;;48.92;28.83;;;;;;;;;;5074335;28;20199;-57
2022/11/15 12:24:37;;;;;;;59.10;31.95;;;;;;;;;;5032701;28;20204;-56
2022/11/15 12:27:12;;;;;;;61.08;33.78;;;;;;;;;;5016805;28;20263;-55
2022/11/15 12:29:44;;;;;;;65.63;33.67;;;;;;;;;;5016689;28;20270;-55
2022/11/15 12:32:26;;;;;;;72.43;36.70;;;;;;;;;;5032705;28;20193;-57
2022/11/15 12:34:54;;;;;;;59.72;33.47;;;;;;;;;;5033044;28;20219;-55
2022/11/15 12:37:37;;;;;;;59.15;34.30;;;;;;;;;;5009270;28;20236;-55
2022/11/15 12:40:23;;;;;;;62.42;34.58;;;;;;;;;;5031308;28;20229;-56
2022/11/15 12:43:03;;;;;;;56.22;32.95;;;;;;;;;;5020680;28;20220;-56
2022/11/15 12:45:36;;;;;;;54.25;31.08;;;;;;;;;;5031653;28;20221;-58
2022/11/15 12:48:15;;;;;;;125.70;71.60;;;;;;;;;;5016631;28;20235;-58
2022/11/15 12:50:54;;;;;;;52.05;31.67;;;;;;;;;;5035012;28;20232;-58
2022/11/15 12:53:24;;;;;;;66.72;34.75;;;;;;;;;;5015410;28;20256;-57
2022/11/15 12:56:10;;;;;;;52.80;30.48;;;;;;;;;;5045010;28;20277;-59
2022/11/15 12:58:57;;;;;;;56.10;30.90;;;;;;;;;;5056736;28;20224;-59
2022/11/15 13:01:31;;;;;;;49.85;29.55;;;;;;;;;;5056949;28;20235;-59
2022/11/15 13:04:19;;;;;;;52.63;30.63;;;;;;;;;;5056793;28;20228;-58
2022/11/15 13:06:52;;;;;;;48.72;28.60;;;;;;;;;;5071546;28;20289;-59
2022/11/15 13:09:28;;;;;;;50.10;31.15;;;;;;;;;;5077065;28;20225;-58
2022/11/15 13:12:01;;;;;;;53.75;31.10;;;;;;;;;;5076586;28;20260;-57
2022/11/15 13:14:37;;;;;;;54.45;31.80;;;;;;;;;;5076756;28;20234;-52
2022/11/15 13:17:16;;;;;;;54.97;30.42;;;;;;;;;;5073336;28;20239;-61
2022/11/15 13:19:45;;;;;;;57.28;32.03;;;;;;;;;;5076470;28;20219;-60
2022/11/15 13:25:00;;;;;;;58.80;32.78;;;;;;;;;;5076170;28;20667;-60
2022/11/15 13:27:28;;;;;;;54.78;32.60;;;;;;;;;;5075106;28;20231;-60
2022/11/15 13:29:55;;;;;;;58.40;33.47;;;;;;;;;;5076184;28;20556;-60
2022/11/15 13:32:22;;;;;;;58.22;33.80;;;;;;;;;;5075748;28;20223;-61
2022/11/15 13:34:52;;;;;;;52.33;32.33;;;;;;;;;;5074920;28;20239;-60
2022/11/15 13:37:19;;;;;;;55.88;33.50;;;;;;;;;;5076120;28;20215;-59
2022/11/15 13:39:48;;;;;;;140.10;73.47;;;;;;;;;;5075962;28;20518;-60
2022/11/15 13:42:19;;;;;;;64.32;37.45;;;;;;;;;;5075630;28;20231;-59
2022/11/15 13:44:58;;;;;;;62.08;34.97;;;;;;;;;;5076028;28;20251;-61
2022/11/15 13:47:27;;;;;;;55.15;34.17;;;;;;;;;;5071177;28;20211;-59
2022/11/15 13:49:57;;;;;;;64.13;37.00;;;;;;;;;;5075571;28;20253;-60
2022/11/15 13:52:29;;;;;;;58.97;36.03;;;;;;;;;;5074814;28;20225;-59
2022/11/15 13:55:03;;;;;;;51.95;31.70;;;;;;;;;;5074888;28;20219;-59
2022/11/15 13:57:47;;;;;;;58.40;32.85;;;;;;;;;;5075006;28;20241;-58
2022/11/15 14:00:35;;;;;;;50.58;30.55;;;;;;;;;;5055037;28;20235;-56
2022/11/15 14:03:15;;;;;;;56.13;34.13;;;;;;;;;;5063115;28;20226;-60
2022/11/15 14:05:42;;;;;;;47.15;29.80;;;;;;;;;;5074074;28;20223;-59
2022/11/15 14:08:16;;;;;;;57.00;32.15;;;;;;;;;;5075240;28;20765;-59
2022/11/15 14:10:42;;;;;;;66.57;34.25;;;;;;;;;;5075728;28;20219;-56
2022/11/15 14:13:27;;;;;;;53.90;31.17;;;;;;;;;;5075354;28;20212;-53
2022/11/15 14:15:54;;;;;;;97.28;47.45;;;;;;;;;;5075250;28;20316;-59
2022/11/15 14:18:42;;;;;;;50.55;29.65;;;;;;;;;;5075322;28;20559;-60
2022/11/15 14:21:09;;;;;;;50.70;30.77;;;;;;;;;;5058166;28;20238;-60
2022/11/15 14:23:36;;;;;;;49.92;30.73;;;;;;;;;;5075145;28;20223;-59
2022/11/15 14:26:03;;;;;;;51.25;31.90;;;;;;;;;;5075192;28;20228;-57
2022/11/15 14:28:40;;;;;;;52.75;31.55;;;;;;;;;;5074359;28;20215;-59
2022/11/15 14:31:12;;;;;;;56.05;34.15;;;;;;;;;;5075404;28;20223;-51
2022/11/15 14:33:41;;;;;;;58.05;33.90;;;;;;;;;;5074878;28;20301;-57
2022/11/15 14:36:11;;;;;;;59.47;34.77;;;;;;;;;;5074383;28;20243;-53
2022/11/15 14:38:39;;;;;;;56.97;34.03;;;;;;;;;;5075063;28;20215;-55
2022/11/15 14:41:16;;;;;;;56.30;33.17;;;;;;;;;;5074390;28;20302;-56
2022/11/15 14:43:43;;;;;;;64.30;35.15;;;;;;;;;;5075011;28;20234;-57
2022/11/15 14:46:10;;;;;;;60.25;35.55;;;;;;;;;;5074756;28;20234;-57
2022/11/15 14:48:37;;;;;;;53.63;32.70;;;;;;;;;;5073853;28;20226;-58
2022/11/15 14:51:11;;;;;;;57.37;33.53;;;;;;;;;;5073503;28;20232;-59
2022/11/15 14:53:39;;;;;;;57.53;33.75;;;;;;;;;;5074464;28;20571;-59
2022/11/15 14:56:06;;;;;;;60.03;35.20;;;;;;;;;;5074094;28;20239;-58
2022/11/15 14:58:33;;;;;;;65.32;35.78;;;;;;;;;;5074599;28;20223;-58
2022/11/15 15:01:03;;;;;;;61.35;34.75;;;;;;;;;;5073766;28;20310;-58
2022/11/15 15:03:30;;;;;;;71.45;38.25;;;;;;;;;;5074463;28;20233;-57
2022/11/15 15:05:57;;;;;;;57.35;33.92;;;;;;;;;;5073965;28;20301;-58
2022/11/15 15:08:25;;;;;;;66.97;35.10;;;;;;;;;;5073139;28;20231;-55
2022/11/15 15:10:51;;;;;;;57.75;33.50;;;;;;;;;;5074087;28;20231;-54
2022/11/15 15:13:23;;;;;;;64.80;36.80;;;;;;;;;;5072210;28;20218;-58
2022/11/15 15:15:51;;;;;;;59.72;35.47;;;;;;;;;;5073501;28;20254;-57
2022/11/15 15:18:19;;;;;;;57.58;34.72;;;;;;;;;;5073022;28;20710;-54
2022/11/15 15:21:01;;;;;;;60.03;34.00;;;;;;;;;;5073239;28;20231;-59
2022/11/15 15:23:30;;;;;;;54.72;31.60;;;;;;;;;;5072699;28;20237;-57
2022/11/15 15:25:58;;;;;;;53.20;33.55;;;;;;;;;;5063570;28;20235;-61
2022/11/15 15:28:25;;;;;;;55.38;31.88;;;;;;;;;;5059950;28;20222;-59
2022/11/15 15:31:00;;;;;;;55.57;32.23;;;;;;;;;;5067778;28;20296;-59
2022/11/15 15:33:27;;;;;;;54.50;30.97;;;;;;;;;;5068598;28;20664;-60
2022/11/15 15:35:54;;;;;;;52.15;31.35;;;;;;;;;;5060383;28;20236;-59
2022/11/15 15:38:22;;;;;;;54.08;32.85;;;;;;;;;;5056974;28;20745;-61
2022/11/15 15:40:49;;;;;;;61.25;33.47;;;;;;;;;;5072018;28;20231;-61
2022/11/15 15:43:17;;;;;;;60.63;33.67;;;;;;;;;;5072950;28;20276;-59
2022/11/15 15:45:44;;;;;;;65.25;35.33;;;;;;;;;;5066332;28;20288;-62
2022/11/15 15:48:16;;;;;;;65.53;36.57;;;;;;;;;;5060676;28;20265;-58
2022/11/15 15:50:44;;;;;;;67.83;38.20;;;;;;;;;;5073048;28;20287;-59
2022/11/15 15:53:12;;;;;;;68.03;38.50;;;;;;;;;;5073340;28;20652;-60
2022/11/15 15:55:39;;;;;;;62.00;36.70;;;;;;;;;;5073588;28;20281;-58
2022/11/15 15:58:07;;;;;;;63.27;35.10;;;;;;;;;;5071448;28;20211;-57
2022/11/15 16:00:35;;;;;;;62.35;34.88;;;;;;;;;;5063731;28;20215;-61
2022/11/15 16:03:03;;;;;;;63.15;35.03;;;;;;;;;;5072864;28;20230;-59